sensor_id;sensor_type;location;lat;lon;timestamp;pressure;altitude;pressure_sealevel;temperature;humidity
43298;BME280;28892;55.640;37.532;2022-08-07T00:00:22;98960.88;;;24.89;48.35
43298;BME280;28892;55.640;37.532;2022-08-07T00:02:48;98954.31;;;24.95;48.60
43298;BME280;28892;55.640;37.532;2022-08-07T00:05:13;98962.09;;;25.07;47.80
43298;BME280;28892;55.640;37.532;2022-08-07T00:07:39;98956.13;;;25.05;47.29
43298;BME280;28892;55.640;37.532;2022-08-07T00:10:05;98951.22;;;25.07;47.88
43298;BME280;28892;55.640;37.532;2022-08-07T00:12:31;98958.75;;;25.15;47.19
43298;BME280;28892;55.640;37.532;2022-08-07T00:14:57;98955.97;;;25.20;46.94
43298;BME280;28892;55.640;37.532;2022-08-07T00:17:23;98951.59;;;25.24;46.79
43298;BME280;28892;55.640;37.532;2022-08-07T00:19:49;98950.06;;;25.13;46.40
43298;BME280;28892;55.640;37.532;2022-08-07T00:22:15;98953.53;;;25.19;47.47
43298;BME280;28892;55.640;37.532;2022-08-07T00:24:40;98953.00;;;25.22;47.26
43298;BME280;28892;55.640;37.532;2022-08-07T00:27:06;98951.31;;;25.26;47.14
43298;BME280;28892;55.640;37.532;2022-08-07T00:29:32;98947.16;;;25.34;46.23
43298;BME280;28892;55.640;37.532;2022-08-07T00:31:58;98950.81;;;25.24;46.51
43298;BME280;28892;55.640;37.532;2022-08-07T00:34:25;98947.25;;;25.23;46.63
43298;BME280;28892;55.640;37.532;2022-08-07T00:36:52;98946.22;;;25.19;46.18
43298;BME280;28892;55.640;37.532;2022-08-07T00:39:18;98942.41;;;25.20;46.38
43298;BME280;28892;55.640;37.532;2022-08-07T00:41:48;98946.50;;;25.18;47.02
43298;BME280;28892;55.640;37.532;2022-08-07T00:44:14;98945.50;;;25.08;46.75
43298;BME280;28892;55.640;37.532;2022-08-07T00:46:40;98951.59;;;24.95;47.40
43298;BME280;28892;55.640;37.532;2022-08-07T00:49:06;98941.34;;;24.87;47.11
43298;BME280;28892;55.640;37.532;2022-08-07T00:51:31;98937.75;;;24.96;47.27
43298;BME280;28892;55.640;37.532;2022-08-07T00:53:57;98939.28;;;25.08;46.64
43298;BME280;28892;55.640;37.532;2022-08-07T00:56:23;98936.59;;;25.03;46.88
43298;BME280;28892;55.640;37.532;2022-08-07T00:58:49;98938.84;;;24.95;46.72
43298;BME280;28892;55.640;37.532;2022-08-07T01:01:16;98942.16;;;24.87;47.45
43298;BME280;28892;55.640;37.532;2022-08-07T01:03:41;98940.94;;;24.69;47.70
43298;BME280;28892;55.640;37.532;2022-08-07T01:06:08;98944.56;;;24.54;47.94
43298;BME280;28892;55.640;37.532;2022-08-07T01:08:34;98934.38;;;24.35;48.74
43298;BME280;28892;55.640;37.532;2022-08-07T01:10:59;98941.41;;;24.36;48.97
43298;BME280;28892;55.640;37.532;2022-08-07T01:13:25;98941.78;;;24.19;49.60
43298;BME280;28892;55.640;37.532;2022-08-07T01:15:51;98950.75;;;24.14;49.86
43298;BME280;28892;55.640;37.532;2022-08-07T01:18:17;98948.59;;;24.11;49.99
43298;BME280;28892;55.640;37.532;2022-08-07T01:20:53;98945.88;;;24.11;49.65
43298;BME280;28892;55.640;37.532;2022-08-07T01:23:21;98940.75;;;23.99;50.45
43298;BME280;28892;55.640;37.532;2022-08-07T01:25:48;98941.31;;;23.96;50.18
43298;BME280;28892;55.640;37.532;2022-08-07T01:28:14;98936.81;;;23.71;50.99
43298;BME280;28892;55.640;37.532;2022-08-07T01:30:40;98938.44;;;23.72;51.06
43298;BME280;28892;55.640;37.532;2022-08-07T01:33:07;98933.56;;;23.74;51.09
43298;BME280;28892;55.640;37.532;2022-08-07T01:35:33;98943.59;;;23.74;50.11
43298;BME280;28892;55.640;37.532;2022-08-07T01:37:58;98939.22;;;23.83;50.77
43298;BME280;28892;55.640;37.532;2022-08-07T01:40:25;98936.22;;;23.90;50.05
43298;BME280;28892;55.640;37.532;2022-08-07T01:42:58;98938.94;;;23.84;50.57
43298;BME280;28892;55.640;37.532;2022-08-07T01:45:24;98945.47;;;23.78;50.20
43298;BME280;28892;55.640;37.532;2022-08-07T01:47:53;98942.81;;;23.63;51.61
43298;BME280;28892;55.640;37.532;2022-08-07T01:50:21;98941.41;;;23.76;50.49
43298;BME280;28892;55.640;37.532;2022-08-07T01:52:50;98934.91;;;23.77;51.02
43298;BME280;28892;55.640;37.532;2022-08-07T01:55:18;98934.38;;;23.80;50.87
43298;BME280;28892;55.640;37.532;2022-08-07T01:57:46;98942.00;;;23.57;51.79
43298;BME280;28892;55.640;37.532;2022-08-07T02:00:13;98943.38;;;23.54;51.68
43298;BME280;28892;55.640;37.532;2022-08-07T02:03:00;98942.81;;;23.63;51.96
43298;BME280;28892;55.640;37.532;2022-08-07T02:05:33;98946.06;;;23.60;51.73
43298;BME280;28892;55.640;37.532;2022-08-07T02:08:07;98939.59;;;23.50;52.17
43298;BME280;28892;55.640;37.532;2022-08-07T02:10:38;98935.00;;;23.46;52.21
43298;BME280;28892;55.640;37.532;2022-08-07T02:13:28;98934.19;;;23.40;52.18
43298;BME280;28892;55.640;37.532;2022-08-07T02:15:57;98927.72;;;23.20;52.67
43298;BME280;28892;55.640;37.532;2022-08-07T02:18:25;98923.13;;;23.26;52.51
43298;BME280;28892;55.640;37.532;2022-08-07T02:20:54;98923.13;;;23.21;52.87
43298;BME280;28892;55.640;37.532;2022-08-07T02:23:21;98923.66;;;23.17;52.48
43298;BME280;28892;55.640;37.532;2022-08-07T02:25:48;98922.03;;;23.11;52.81
43298;BME280;28892;55.640;37.532;2022-08-07T02:28:16;98918.00;;;23.03;53.38
43298;BME280;28892;55.640;37.532;2022-08-07T02:30:44;98914.75;;;23.12;52.88
43298;BME280;28892;55.640;37.532;2022-08-07T02:33:13;98921.75;;;23.18;52.32
43298;BME280;28892;55.640;37.532;2022-08-07T02:35:41;98920.16;;;23.27;52.03
43298;BME280;28892;55.640;37.532;2022-08-07T02:38:10;98926.38;;;23.17;52.49
43298;BME280;28892;55.640;37.532;2022-08-07T02:40:37;98918.56;;;23.00;52.71
43298;BME280;28892;55.640;37.532;2022-08-07T02:43:05;98919.63;;;23.05;52.82
43298;BME280;28892;55.640;37.532;2022-08-07T02:45:32;98925.56;;;22.96;53.00
43298;BME280;28892;55.640;37.532;2022-08-07T02:48:01;98923.16;;;22.95;52.98
43298;BME280;28892;55.640;37.532;2022-08-07T02:50:30;98920.19;;;23.01;52.86
43298;BME280;28892;55.640;37.532;2022-08-07T02:53:02;98920.44;;;23.00;52.93
43298;BME280;28892;55.640;37.532;2022-08-07T02:55:33;98927.47;;;23.06;52.26
43298;BME280;28892;55.640;37.532;2022-08-07T02:58:04;98929.91;;;23.13;52.27
43298;BME280;28892;55.640;37.532;2022-08-07T03:00:34;98935.56;;;23.37;51.54
43298;BME280;28892;55.640;37.532;2022-08-07T03:03:04;98930.97;;;23.12;52.47
43298;BME280;28892;55.640;37.532;2022-08-07T03:05:30;98925.03;;;23.05;52.27
43298;BME280;28892;55.640;37.532;2022-08-07T03:07:57;98922.06;;;22.96;52.96
43298;BME280;28892;55.640;37.532;2022-08-07T03:10:23;98932.06;;;23.00;52.72
43298;BME280;28892;55.640;37.532;2022-08-07T03:12:51;98931.25;;;23.10;52.34
43298;BME280;28892;55.640;37.532;2022-08-07T03:15:18;98929.91;;;23.13;52.17
43298;BME280;28892;55.640;37.532;2022-08-07T03:17:45;98920.16;;;23.12;52.27
43298;BME280;28892;55.640;37.532;2022-08-07T03:20:11;98930.69;;;23.19;52.43
43298;BME280;28892;55.640;37.532;2022-08-07T03:22:40;98932.31;;;23.20;52.46
43298;BME280;28892;55.640;37.532;2022-08-07T03:25:07;98932.03;;;23.26;52.14
43298;BME280;28892;55.640;37.532;2022-08-07T03:27:41;98931.25;;;23.36;51.97
43298;BME280;28892;55.640;37.532;2022-08-07T03:30:08;98932.03;;;23.26;52.31
43298;BME280;28892;55.640;37.532;2022-08-07T03:32:38;98922.03;;;23.32;52.48
43298;BME280;28892;55.640;37.532;2022-08-07T03:35:10;98928.25;;;23.43;52.21
43298;BME280;28892;55.640;37.532;2022-08-07T03:37:40;98938.25;;;23.42;51.93
43298;BME280;28892;55.640;37.532;2022-08-07T03:40:08;98930.69;;;23.19;52.42
43298;BME280;28892;55.640;37.532;2022-08-07T03:42:37;98932.59;;;23.23;52.67
43298;BME280;28892;55.640;37.532;2022-08-07T03:45:05;98924.19;;;23.20;52.96
43298;BME280;28892;55.640;37.532;2022-08-07T03:47:31;98922.84;;;23.27;52.42
43298;BME280;28892;55.640;37.532;2022-08-07T03:49:58;98924.75;;;23.27;52.78
43298;BME280;28892;55.640;37.532;2022-08-07T03:52:30;98925.00;;;23.25;52.59
43298;BME280;28892;55.640;37.532;2022-08-07T03:55:01;98931.22;;;23.41;52.51
43298;BME280;28892;55.640;37.532;2022-08-07T03:57:30;98932.59;;;23.44;51.53
43298;BME280;28892;55.640;37.532;2022-08-07T03:59:57;98929.59;;;23.51;51.58
43298;BME280;28892;55.640;37.532;2022-08-07T04:02:24;98926.84;;;23.61;51.78
43298;BME280;28892;55.640;37.532;2022-08-07T04:04:51;98926.28;;;23.64;51.05
43298;BME280;28892;55.640;37.532;2022-08-07T04:07:20;98925.75;;;23.57;51.50
43298;BME280;28892;55.640;37.532;2022-08-07T04:09:48;98933.34;;;23.60;51.98
43298;BME280;28892;55.640;37.532;2022-08-07T04:12:16;98928.75;;;23.50;52.21
43298;BME280;28892;55.640;37.532;2022-08-07T04:14:44;98932.78;;;23.68;51.96
43298;BME280;28892;55.640;37.532;2022-08-07T04:17:12;98933.28;;;23.76;51.30
43298;BME280;28892;55.640;37.532;2022-08-07T04:19:40;98941.41;;;23.76;51.78
43298;BME280;28892;55.640;37.532;2022-08-07T04:22:06;98937.34;;;23.78;51.46
43298;BME280;28892;55.640;37.532;2022-08-07T04:24:37;98935.66;;;23.93;51.02
43298;BME280;28892;55.640;37.532;2022-08-07T04:27:05;98933.16;;;24.12;50.01
43298;BME280;28892;55.640;37.532;2022-08-07T04:29:33;98939.06;;;24.24;50.09
43298;BME280;28892;55.640;37.532;2022-08-07T04:32:00;98931.31;;;24.47;49.43
43298;BME280;28892;55.640;37.532;2022-08-07T04:34:26;98940.16;;;24.63;48.82
43298;BME280;28892;55.640;37.532;2022-08-07T04:36:53;98937.88;;;24.81;48.71
43298;BME280;28892;55.640;37.532;2022-08-07T04:39:19;98936.16;;;24.90;47.80
43298;BME280;28892;55.640;37.532;2022-08-07T04:41:45;98932.34;;;24.91;47.88
43298;BME280;28892;55.640;37.532;2022-08-07T04:44:11;98929.66;;;24.91;48.21
43298;BME280;28892;55.640;37.532;2022-08-07T04:49:15;98938.59;;;25.21;48.27
43298;BME280;28892;55.640;37.532;2022-08-07T04:51:55;98944.09;;;25.16;48.29
43298;BME280;28892;55.640;37.532;2022-08-07T04:54:35;98942.91;;;25.28;47.93
43298;BME280;28892;55.640;37.532;2022-08-07T04:57:14;98942.16;;;25.46;47.09
43298;BME280;28892;55.640;37.532;2022-08-07T05:02:17;98951.41;;;25.94;46.51
43298;BME280;28892;55.640;37.532;2022-08-07T05:05:08;98952.56;;;26.31;45.90
43298;BME280;28892;55.640;37.532;2022-08-07T05:08:00;98950.59;;;26.56;45.07
43298;BME280;28892;55.640;37.532;2022-08-07T05:10:41;98947.66;;;26.53;45.38
43298;BME280;28892;55.640;37.532;2022-08-07T05:13:20;98946.84;;;26.52;44.91
43298;BME280;28892;55.640;37.532;2022-08-07T05:15:52;98956.53;;;26.20;45.91
43298;BME280;28892;55.640;37.532;2022-08-07T05:18:22;98948.84;;;26.03;46.24
43298;BME280;28892;55.640;37.532;2022-08-07T05:20:52;98940.75;;;26.22;45.83
43298;BME280;28892;55.640;37.532;2022-08-07T05:23:44;98950.13;;;26.68;45.12
43298;BME280;28892;55.640;37.532;2022-08-07T05:26:16;98946.19;;;26.60;44.75
43298;BME280;28892;55.640;37.532;2022-08-07T05:28:44;98944.00;;;26.96;44.54
43298;BME280;28892;55.640;37.532;2022-08-07T05:31:14;98941.31;;;26.76;44.28
43298;BME280;28892;55.640;37.532;2022-08-07T05:33:42;98935.13;;;26.71;43.93
43298;BME280;28892;55.640;37.532;2022-08-07T05:36:09;98939.44;;;26.91;44.05
43298;BME280;28892;55.640;37.532;2022-08-07T05:38:36;98945.06;;;27.14;44.33
43298;BME280;28892;55.640;37.532;2022-08-07T05:41:04;98946.47;;;27.25;43.43
43298;BME280;28892;55.640;37.532;2022-08-07T05:43:31;98940.31;;;27.19;43.88
43298;BME280;28892;55.640;37.532;2022-08-07T05:45:58;98944.47;;;27.17;43.56
43298;BME280;28892;55.640;37.532;2022-08-07T05:48:28;98933.47;;;27.22;43.40
43298;BME280;28892;55.640;37.532;2022-08-07T05:50:58;98946.09;;;27.32;44.12
43298;BME280;28892;55.640;37.532;2022-08-07T05:53:26;98948.44;;;27.39;43.79
43298;BME280;28892;55.640;37.532;2022-08-07T05:55:54;98948.44;;;27.39;43.34
43298;BME280;28892;55.640;37.532;2022-08-07T05:58:23;98947.47;;;27.15;44.36
43298;BME280;28892;55.640;37.532;2022-08-07T06:00:51;98956.25;;;27.12;44.06
43298;BME280;28892;55.640;37.532;2022-08-07T06:03:19;98960.31;;;27.29;43.73
43298;BME280;28892;55.640;37.532;2022-08-07T06:05:46;98948.38;;;27.11;44.32
43298;BME280;28892;55.640;37.532;2022-08-07T06:08:12;98947.63;;;26.91;45.13
43298;BME280;28892;55.640;37.532;2022-08-07T06:10:39;98958.63;;;26.81;45.23
43298;BME280;28892;55.640;37.532;2022-08-07T06:13:07;98960.72;;;26.89;44.86
43298;BME280;28892;55.640;37.532;2022-08-07T06:15:35;98952.16;;;26.96;45.11
43298;BME280;28892;55.640;37.532;2022-08-07T06:18:02;98960.75;;;27.03;45.18
43298;BME280;28892;55.640;37.532;2022-08-07T06:20:34;98964.41;;;27.12;45.36
43298;BME280;28892;55.640;37.532;2022-08-07T06:23:03;98951.69;;;26.74;46.29
43298;BME280;28892;55.640;37.532;2022-08-07T06:25:36;98960.66;;;26.56;46.28
43298;BME280;28892;55.640;37.532;2022-08-07T06:28:09;98961.91;;;26.63;47.06
43298;BME280;28892;55.640;37.532;2022-08-07T06:30:38;98958.22;;;26.54;47.20
43298;BME280;28892;55.640;37.532;2022-08-07T06:33:10;98961.69;;;26.41;47.81
43298;BME280;28892;55.640;37.532;2022-08-07T06:35:36;98971.31;;;26.52;47.63
43298;BME280;28892;55.640;37.532;2022-08-07T06:38:05;98983.28;;;26.51;47.65
43298;BME280;28892;55.640;37.532;2022-08-07T06:40:39;98980.44;;;26.42;48.09
43298;BME280;28892;55.640;37.532;2022-08-07T06:43:09;98980.47;;;26.18;48.31
43298;BME280;28892;55.640;37.532;2022-08-07T06:45:45;98980.34;;;26.04;49.24
43298;BME280;28892;55.640;37.532;2022-08-07T06:48:11;98979.09;;;25.96;49.20
43298;BME280;28892;55.640;37.532;2022-08-07T06:50:41;98973.66;;;25.96;49.08
43298;BME280;28892;55.640;37.532;2022-08-07T06:53:08;98979.19;;;25.66;50.21
43298;BME280;28892;55.640;37.532;2022-08-07T06:55:35;98976.75;;;25.35;51.42
43298;BME280;28892;55.640;37.532;2022-08-07T06:58:06;98973.09;;;25.50;51.16
43298;BME280;28892;55.640;37.532;2022-08-07T07:00:40;98967.09;;;25.53;51.19
43298;BME280;28892;55.640;37.532;2022-08-07T07:03:09;98970.16;;;25.71;50.95
43298;BME280;28892;55.640;37.532;2022-08-07T07:05:36;98976.50;;;25.86;50.62
43298;BME280;28892;55.640;37.532;2022-08-07T07:08:02;98976.16;;;25.92;50.60
43298;BME280;28892;55.640;37.532;2022-08-07T07:10:32;98983.44;;;25.97;50.55
43298;BME280;28892;55.640;37.532;2022-08-07T07:15:44;98975.00;;;26.61;50.10
43298;BME280;28892;55.640;37.532;2022-08-07T07:21:25;98978.13;;;27.96;46.41
43298;BME280;28892;55.640;37.532;2022-08-07T07:23:53;98977.22;;;27.59;47.11
43298;BME280;28892;55.640;37.532;2022-08-07T07:26:21;98979.34;;;27.76;46.42
43298;BME280;28892;55.640;37.532;2022-08-07T07:28:52;98981.78;;;27.78;47.03
43298;BME280;28892;55.640;37.532;2022-08-07T07:31:23;98973.69;;;28.00;46.40
43298;BME280;28892;55.640;37.532;2022-08-07T07:33:55;98974.09;;;27.80;46.88
43298;BME280;28892;55.640;37.532;2022-08-07T07:36:23;98973.81;;;27.81;47.49
43298;BME280;28892;55.640;37.532;2022-08-07T07:38:50;98975.31;;;27.59;46.98
43298;BME280;28892;55.640;37.532;2022-08-07T07:41:18;98972.91;;;27.86;46.33
43298;BME280;28892;55.640;37.532;2022-08-07T07:43:50;98976.81;;;28.08;45.43
43298;BME280;28892;55.640;37.532;2022-08-07T07:46:17;98963.78;;;27.91;45.58
43298;BME280;28892;55.640;37.532;2022-08-07T07:48:45;98968.63;;;28.08;45.48
43298;BME280;28892;55.640;37.532;2022-08-07T07:51:13;98968.22;;;28.14;45.00
43298;BME280;28892;55.640;37.532;2022-08-07T07:53:42;98963.34;;;28.11;45.34
43298;BME280;28892;55.640;37.532;2022-08-07T07:56:09;98964.44;;;28.38;45.04
43298;BME280;28892;55.640;37.532;2022-08-07T07:58:38;98964.03;;;28.45;45.18
43298;BME280;28892;55.640;37.532;2022-08-07T08:01:05;98957.00;;;28.30;45.06
43298;BME280;28892;55.640;37.532;2022-08-07T08:03:33;98962.22;;;28.63;44.97
43298;BME280;28892;55.640;37.532;2022-08-07T08:06:01;98967.91;;;28.90;44.22
43298;BME280;28892;55.640;37.532;2022-08-07T08:08:29;98962.19;;;29.00;43.43
43298;BME280;28892;55.640;37.532;2022-08-07T08:11:00;98954.75;;;28.92;44.34
43298;BME280;28892;55.640;37.532;2022-08-07T08:13:28;98969.72;;;28.94;44.27
43298;BME280;28892;55.640;37.532;2022-08-07T08:15:54;98967.41;;;29.10;43.50
43298;BME280;28892;55.640;37.532;2022-08-07T08:18:23;98968.97;;;29.34;43.72
43298;BME280;28892;55.640;37.532;2022-08-07T08:20:49;98966.88;;;29.31;43.45
43298;BME280;28892;55.640;37.532;2022-08-07T08:23:16;98970.31;;;29.14;42.83
43298;BME280;28892;55.640;37.532;2022-08-07T08:26:03;98956.25;;;29.61;42.45
43298;BME280;28892;55.640;37.532;2022-08-07T08:28:50;98962.88;;;29.78;42.14
43298;BME280;28892;55.640;37.532;2022-08-07T08:31:22;98949.81;;;30.15;42.10
43298;BME280;28892;55.640;37.532;2022-08-07T08:33:51;98948.22;;;30.32;41.70
43298;BME280;28892;55.640;37.532;2022-08-07T08:36:18;98954.63;;;30.18;40.23
43298;BME280;28892;55.640;37.532;2022-08-07T08:38:45;98952.25;;;30.52;39.39
43298;BME280;28892;55.640;37.532;2022-08-07T08:41:23;98946.78;;;30.78;38.89
43298;BME280;28892;55.640;37.532;2022-08-07T08:44:02;98936.94;;;30.86;39.88
43298;BME280;28892;55.640;37.532;2022-08-07T08:52:11;98939.56;;;31.39;38.58
43298;BME280;28892;55.640;37.532;2022-08-07T08:55:09;98930.16;;;31.79;36.97
43298;BME280;28892;55.640;37.532;2022-08-07T08:58:02;98928.50;;;31.87;35.88
43298;BME280;28892;55.640;37.532;2022-08-07T09:00:35;98923.88;;;31.48;36.74
43298;BME280;28892;55.640;37.532;2022-08-07T09:11:57;98930.41;;;31.26;36.33
43298;BME280;28892;55.640;37.532;2022-08-07T09:14:39;98931.09;;;31.05;37.05
43298;BME280;28892;55.640;37.532;2022-08-07T09:17:40;98924.50;;;30.98;36.67
43298;BME280;28892;55.640;37.532;2022-08-07T09:23:18;98924.00;;;31.04;36.62
43298;BME280;28892;55.640;37.532;2022-08-07T09:28:32;98922.09;;;30.96;37.47
43298;BME280;28892;55.640;37.532;2022-08-07T09:36:13;98919.09;;;30.71;37.38
43298;BME280;28892;55.640;37.532;2022-08-07T09:41:45;98917.03;;;31.16;36.71
43298;BME280;28892;55.640;37.532;2022-08-07T09:44:35;98908.63;;;31.21;36.60
43298;BME280;28892;55.640;37.532;2022-08-07T09:47:32;98903.63;;;31.32;36.83
43298;BME280;28892;55.640;37.532;2022-08-07T09:52:50;98900.91;;;31.32;36.97
43298;BME280;28892;55.640;37.532;2022-08-07T09:58:23;98897.94;;;31.76;35.81
43298;BME280;28892;55.640;37.532;2022-08-07T10:17:58;98865.72;;;32.15;34.27
43298;BME280;28892;55.640;37.532;2022-08-07T10:42:31;98858.38;;;31.56;34.20
43298;BME280;28892;55.640;37.532;2022-08-07T10:45:19;98849.34;;;30.77;35.26
43298;BME280;28892;55.640;37.532;2022-08-07T10:47:58;98854.09;;;30.98;35.08
43298;BME280;28892;55.640;37.532;2022-08-07T10:50:38;98843.28;;;31.11;35.14
43298;BME280;28892;55.640;37.532;2022-08-07T10:56:10;98862.09;;;30.73;35.83
43298;BME280;28892;55.640;37.532;2022-08-07T10:58:50;98845.84;;;30.68;35.96
43298;BME280;28892;55.640;37.532;2022-08-07T11:06:21;98851.94;;;31.21;34.92
43298;BME280;28892;55.640;37.532;2022-08-07T11:09:06;98840.81;;;31.18;35.07
43298;BME280;28892;55.640;37.532;2022-08-07T11:11:46;98842.00;;;31.68;33.74
43298;BME280;28892;55.640;37.532;2022-08-07T11:17:03;98841.47;;;31.24;33.35
43298;BME280;28892;55.640;37.532;2022-08-07T11:22:31;98835.97;;;30.85;33.74
43298;BME280;28892;55.640;37.532;2022-08-07T11:25:07;98828.59;;;30.76;33.45
43298;BME280;28892;55.640;37.532;2022-08-07T11:30:20;98832.75;;;31.21;33.73
43298;BME280;28892;55.640;37.532;2022-08-07T11:33:05;98829.72;;;31.96;31.30
43298;BME280;28892;55.640;37.532;2022-08-07T11:41:33;98836.84;;;31.45;31.50
43298;BME280;28892;55.640;37.532;2022-08-07T11:44:29;98834.00;;;31.33;31.32
43298;BME280;28892;55.640;37.532;2022-08-07T11:47:11;98849.16;;;30.91;32.14
43298;BME280;28892;55.640;37.532;2022-08-07T11:52:38;98863.72;;;30.65;36.60
43298;BME280;28892;55.640;37.532;2022-08-07T11:57:52;98876.47;;;30.35;38.53
43298;BME280;28892;55.640;37.532;2022-08-07T12:03:33;98875.19;;;30.06;39.07
43298;BME280;28892;55.640;37.532;2022-08-07T12:08:55;98879.59;;;29.58;40.25
43298;BME280;28892;55.640;37.532;2022-08-07T12:11:25;98900.56;;;29.39;40.62
43298;BME280;28892;55.640;37.532;2022-08-07T12:14:00;98901.13;;;29.19;41.16
43298;BME280;28892;55.640;37.532;2022-08-07T12:16:34;98889.16;;;29.06;40.98
43298;BME280;28892;55.640;37.532;2022-08-07T12:27:09;98903.81;;;28.87;41.05
43298;BME280;28892;55.640;37.532;2022-08-07T12:29:45;98912.34;;;28.63;40.74
43298;BME280;28892;55.640;37.532;2022-08-07T12:34:57;98935.72;;;28.18;40.61
43298;BME280;28892;55.640;37.532;2022-08-07T12:37:27;98949.34;;;28.04;40.93
43298;BME280;28892;55.640;37.532;2022-08-07T12:39:56;98947.22;;;28.01;41.17
43298;BME280;28892;55.640;37.532;2022-08-07T12:42:25;98942.41;;;27.84;41.63
43298;BME280;28892;55.640;37.532;2022-08-07T12:44:51;98940.88;;;27.50;42.87
43298;BME280;28892;55.640;37.532;2022-08-07T12:47:48;98936.78;;;27.66;42.69
43298;BME280;28892;55.640;37.532;2022-08-07T12:53:10;98935.53;;;27.44;43.21
43298;BME280;28892;55.640;37.532;2022-08-07T12:56:02;98937.03;;;27.23;44.07
43298;BME280;28892;55.640;37.532;2022-08-07T12:58:28;98944.59;;;26.92;44.73
43298;BME280;28892;55.640;37.532;2022-08-07T13:06:52;98950.47;;;27.00;45.02
43298;BME280;28892;55.640;37.532;2022-08-07T13:09:45;98950.16;;;27.01;44.91
43298;BME280;28892;55.640;37.532;2022-08-07T13:17:37;98975.94;;;26.71;46.01
43298;BME280;28892;55.640;37.532;2022-08-07T13:20:21;99003.50;;;26.83;45.77
43298;BME280;28892;55.640;37.532;2022-08-07T13:22:53;99003.16;;;26.52;46.62
43298;BME280;28892;55.640;37.532;2022-08-07T13:25:41;98987.84;;;26.75;45.90
43298;BME280;28892;55.640;37.532;2022-08-07T13:28:36;98956.16;;;26.65;45.57
43298;BME280;28892;55.640;37.532;2022-08-07T13:31:09;98970.91;;;26.45;46.28
43298;BME280;28892;55.640;37.532;2022-08-07T13:36:29;98969.69;;;26.51;46.18
43298;BME280;28892;55.640;37.532;2022-08-07T13:41:58;98974.00;;;26.71;45.64
43298;BME280;28892;55.640;37.532;2022-08-07T13:44:29;98986.00;;;26.51;46.06
43298;BME280;28892;55.640;37.532;2022-08-07T13:46:58;98976.81;;;26.66;45.83
43298;BME280;28892;55.640;37.532;2022-08-07T13:49:27;98975.22;;;26.65;45.62
43298;BME280;28892;55.640;37.532;2022-08-07T13:51:56;98968.75;;;26.61;46.14
43298;BME280;28892;55.640;37.532;2022-08-07T13:54:29;98961.16;;;26.58;45.45
43298;BME280;28892;55.640;37.532;2022-08-07T13:56:57;98969.34;;;26.39;46.37
43298;BME280;28892;55.640;37.532;2022-08-07T13:59:29;98973.22;;;26.32;46.17
43298;BME280;28892;55.640;37.532;2022-08-07T14:02:09;98984.22;;;26.22;46.16
43298;BME280;28892;55.640;37.532;2022-08-07T14:04:45;98972.28;;;26.23;46.38
43298;BME280;28892;55.640;37.532;2022-08-07T14:07:14;98980.47;;;26.18;46.05
43298;BME280;28892;55.640;37.532;2022-08-07T14:09:40;98987.88;;;26.12;46.33
43298;BME280;28892;55.640;37.532;2022-08-07T14:12:18;98978.34;;;26.15;47.19
43298;BME280;28892;55.640;37.532;2022-08-07T14:14:51;98986.25;;;26.11;47.00
43298;BME280;28892;55.640;37.532;2022-08-07T14:17:18;98984.91;;;26.08;47.07
43298;BME280;28892;55.640;37.532;2022-08-07T14:22:32;98973.03;;;26.29;46.05
43298;BME280;28892;55.640;37.532;2022-08-07T14:25:11;98966.06;;;26.17;46.33
43298;BME280;28892;55.640;37.532;2022-08-07T14:27:56;98961.91;;;26.25;46.43
43298;BME280;28892;55.640;37.532;2022-08-07T14:30:22;98971.66;;;26.07;46.39
43298;BME280;28892;55.640;37.532;2022-08-07T14:32:54;98966.34;;;26.16;46.09
43298;BME280;28892;55.640;37.532;2022-08-07T14:35:25;98972.16;;;26.09;46.84
43298;BME280;28892;55.640;37.532;2022-08-07T14:37:53;98964.06;;;26.04;46.68
43298;BME280;28892;55.640;37.532;2022-08-07T14:40:21;98975.09;;;26.13;46.88
43298;BME280;28892;55.640;37.532;2022-08-07T14:42:58;98969.75;;;26.27;46.75
43298;BME280;28892;55.640;37.532;2022-08-07T14:45:33;98972.47;;;26.27;46.69
43298;BME280;28892;55.640;37.532;2022-08-07T14:48:00;98985.38;;;26.16;47.03
43298;BME280;28892;55.640;37.532;2022-08-07T14:50:28;98982.56;;;26.26;46.96
43298;BME280;28892;55.640;37.532;2022-08-07T14:52:54;98974.41;;;26.26;46.32
43298;BME280;28892;55.640;37.532;2022-08-07T14:55:31;98970.56;;;26.46;46.21
43298;BME280;28892;55.640;37.532;2022-08-07T14:57:58;98978.22;;;26.25;46.15
43298;BME280;28892;55.640;37.532;2022-08-07T15:00:32;98978.28;;;26.20;46.13
43298;BME280;28892;55.640;37.532;2022-08-07T15:03:03;98972.31;;;26.18;46.29
43298;BME280;28892;55.640;37.532;2022-08-07T15:05:29;98981.59;;;26.12;46.92
43298;BME280;28892;55.640;37.532;2022-08-07T15:07:56;98973.69;;;26.15;45.84
43298;BME280;28892;55.640;37.532;2022-08-07T15:10:25;98980.94;;;26.01;46.44
43298;BME280;28892;55.640;37.532;2022-08-07T15:12:55;98985.56;;;26.00;46.33
43298;BME280;28892;55.640;37.532;2022-08-07T15:15:28;98979.63;;;25.98;46.48
43298;BME280;28892;55.640;37.532;2022-08-07T15:18:00;98992.09;;;25.99;46.29
43298;BME280;28892;55.640;37.532;2022-08-07T15:20:34;98989.38;;;25.99;46.43
43298;BME280;28892;55.640;37.532;2022-08-07T15:23:25;98998.75;;;26.12;46.15
43298;BME280;28892;55.640;37.532;2022-08-07T15:25:55;99013.16;;;26.13;46.08
43298;BME280;28892;55.640;37.532;2022-08-07T15:28:25;99029.34;;;25.99;45.56
43298;BME280;28892;55.640;37.532;2022-08-07T15:30:55;99024.78;;;25.94;46.25
43298;BME280;28892;55.640;37.532;2022-08-07T15:33:24;99019.38;;;25.89;45.94
43298;BME280;28892;55.640;37.532;2022-08-07T15:35:51;99011.19;;;25.94;46.17
43298;BME280;28892;55.640;37.532;2022-08-07T15:38:18;99010.78;;;25.82;46.59
43298;BME280;28892;55.640;37.532;2022-08-07T15:40:49;98997.44;;;25.85;46.30